Decoded Metar for LFOV (LAVAL in FRANCE) (IATA:LVA) | Meteo·Mobile Aviation Weather
aviador You're here:

LFOV Decoded Metar

LAVAL in FRANCE
Report Time2019-07-23 08:30:00
UTC Time2019-07-23 08:54:58
Flight Rules vfr VFR
Wind110° at 06 kt
W.Decomp.*RWY 14: 5.2 kt HW 2.9 kt LCW
Visibility9999 m
Phenomena:N/A
Clouds:N/A
Expected CloudBase > 5,600 ft AGL from Temp-Dew spread
CeilingNone
Temp29°C (ISA +15)
Dew Point15°C (43% RH)
Heat Index28.9°C
AAT28.5°C
QNH1016 hPa
Density Alt2,126 ft
Elevation318 ft
Report Wrong Elevation
Raw Report
METAR LFOV 230830Z AUTO 11006KT 080V150 CAVOK 29/15 Q1016=

Extra information for LFOV:More info

Metar Taf Metar & Taf Last 4 Metars F.Rules Stats Wind Profile Meteogram Temp Stats Airport Information Weather charts Add Link Nearby VenuesMetar ALERT Operation Metar Decoded Social comments